createdAt,value
2019-06-26T00:00:08.998Z,72.64
2019-06-26T00:02:35.204Z,72.80
2019-06-26T00:05:01.462Z,72.74
2019-06-26T00:07:27.654Z,73.12
2019-06-26T00:09:53.814Z,73.33
2019-06-26T00:12:20.027Z,72.70
2019-06-26T00:14:46.193Z,72.76
2019-06-26T00:17:12.396Z,72.44
2019-06-26T00:19:38.537Z,72.41
2019-06-26T00:22:04.741Z,72.64
2019-06-26T00:24:30.914Z,72.69
2019-06-26T00:26:57.095Z,72.57
2019-06-26T00:29:23.291Z,72.69
2019-06-26T00:31:49.467Z,72.55
2019-06-26T00:34:15.666Z,73.15
2019-06-26T00:36:41.912Z,73.23
2019-06-26T00:39:08.130Z,72.58
2019-06-26T00:41:34.572Z,72.94
2019-06-26T00:44:00.785Z,73.06
2019-06-26T00:46:26.991Z,72.93
2019-06-26T00:48:53.133Z,73.06
2019-06-26T00:51:19.337Z,73.64
2019-06-26T00:53:45.515Z,73.70
2019-06-26T00:56:11.719Z,73.31
2019-06-26T00:58:37.875Z,72.36
2019-06-26T01:01:04.081Z,72.22
2019-06-26T01:03:30.246Z,72.69
2019-06-26T01:05:56.412Z,73.12
2019-06-26T01:08:22.614Z,73.79
2019-06-26T01:10:48.807Z,74.13
2019-06-26T01:13:14.957Z,74.05
2019-06-26T01:15:41.154Z,73.93
2019-06-26T01:18:07.340Z,74.11
2019-06-26T01:20:33.587Z,74.38
2019-06-26T01:22:59.753Z,74.58
2019-06-26T01:25:25.920Z,74.61
2019-06-26T01:27:52.110Z,74.89
2019-06-26T01:30:18.598Z,74.29
2019-06-26T01:32:44.767Z,73.73
2019-06-26T01:35:11.449Z,74.47
2019-06-26T01:37:37.635Z,75.13
2019-06-26T01:40:05.913Z,75.54
2019-06-26T01:42:32.083Z,74.72
2019-06-26T01:44:58.265Z,75.39
2019-06-26T01:47:24.442Z,75.86
2019-06-26T01:49:50.589Z,75.87
2019-06-26T01:52:16.777Z,75.95
2019-06-26T01:54:42.977Z,76.22
2019-06-26T01:57:09.171Z,76.77
2019-06-26T01:59:35.365Z,77.04
2019-06-26T02:02:01.524Z,76.98
2019-06-26T02:04:27.712Z,77.00
2019-06-26T02:06:53.905Z,77.01
2019-06-26T02:09:20.099Z,77.26
2019-06-26T02:11:46.281Z,77.07
2019-06-26T02:14:12.487Z,76.94
2019-06-26T02:16:38.642Z,77.53
2019-06-26T02:19:09.412Z,77.40
2019-06-26T02:21:35.628Z,77.18
2019-06-26T02:24:01.835Z,77.27
2019-06-26T02:26:27.987Z,77.18
2019-06-26T02:28:54.152Z,77.38
2019-06-26T02:31:20.341Z,76.07
2019-06-26T02:33:46.529Z,76.52
2019-06-26T02:36:12.671Z,76.98
2019-06-26T02:38:38.836Z,77.33
2019-06-26T02:41:05.046Z,78.25
2019-06-26T02:43:31.283Z,78.34
2019-06-26T02:45:57.471Z,78.34
2019-06-26T02:48:23.634Z,77.80
2019-06-26T02:50:49.868Z,76.95
2019-06-26T02:53:16.266Z,76.66
2019-06-26T02:55:42.432Z,76.55
2019-06-26T02:58:08.610Z,77.63
2019-06-26T03:00:34.797Z,77.68
2019-06-26T03:03:00.965Z,78.36
2019-06-26T03:05:27.157Z,78.48
2019-06-26T03:07:53.367Z,79.19
2019-06-26T03:10:19.537Z,79.07
2019-06-26T03:12:46.056Z,78.28
2019-06-26T03:15:12.915Z,77.52
2019-06-26T03:17:54.065Z,78.07
2019-06-26T03:20:07.769Z,78.33
2019-06-26T03:22:33.940Z,77.13
2019-06-26T03:25:00.143Z,77.20
2019-06-26T03:27:26.327Z,77.43
2019-06-26T03:29:52.476Z,77.71
2019-06-26T03:32:18.663Z,78.31
2019-06-26T03:34:44.827Z,78.05
2019-06-26T03:37:10.957Z,77.89
2019-06-26T03:39:37.132Z,78.13
2019-06-26T03:42:03.314Z,79.38
2019-06-26T03:44:29.648Z,79.88
2019-06-26T03:46:55.865Z,79.95
2019-06-26T03:49:22.056Z,80.09
2019-06-26T03:51:48.210Z,79.69
2019-06-26T03:54:14.394Z,78.86
2019-06-26T03:56:40.536Z,79.85
2019-06-26T03:59:06.688Z,79.54
2019-06-26T04:01:32.856Z,79.57
2019-06-26T04:03:59.016Z,78.81
2019-06-26T04:06:25.206Z,79.03
2019-06-26T04:08:51.402Z,79.05
2019-06-26T04:11:17.596Z,78.95
2019-06-26T04:13:43.747Z,77.70
2019-06-26T04:16:09.931Z,78.16
2019-06-26T04:18:36.088Z,78.48
2019-06-26T04:21:02.374Z,78.74
2019-06-26T04:23:28.589Z,79.20
2019-06-26T04:25:54.780Z,78.98
2019-06-26T04:28:20.932Z,78.85
2019-06-26T04:30:47.120Z,78.39
2019-06-26T04:33:13.268Z,78.36
2019-06-26T04:35:39.745Z,77.99
2019-06-26T04:38:05.940Z,77.51
2019-06-26T04:40:32.135Z,77.36
2019-06-26T04:42:58.326Z,77.20
2019-06-26T04:45:24.492Z,77.63
2019-06-26T04:47:51.030Z,76.91
2019-06-26T04:50:18.377Z,76.36
2019-06-26T04:52:44.563Z,75.26
2019-06-26T04:55:10.935Z,75.15
2019-06-26T04:57:37.128Z,75.68
2019-06-26T05:00:05.587Z,75.51
2019-06-26T05:02:31.783Z,76.28
2019-06-26T05:04:57.952Z,76.08
2019-06-26T05:07:24.147Z,75.99
2019-06-26T05:09:50.340Z,75.25
2019-06-26T05:12:16.538Z,73.96
2019-06-26T05:14:42.715Z,73.85
2019-06-26T05:17:08.996Z,73.54
2019-06-26T05:19:35.674Z,73.81
2019-06-26T05:22:01.846Z,74.55
2019-06-26T05:24:28.060Z,74.32
2019-06-26T05:26:54.239Z,74.60
2019-06-26T05:29:20.439Z,74.68
2019-06-26T05:31:46.634Z,74.03
2019-06-26T05:34:12.834Z,74.65
2019-06-26T05:36:38.992Z,74.43
2019-06-26T05:39:05.899Z,75.12
2019-06-26T05:41:32.093Z,74.60
2019-06-26T05:43:58.271Z,74.99
2019-06-26T05:46:30.940Z,74.56
2019-06-26T05:48:52.649Z,75.30
2019-06-26T05:51:19.097Z,75.80
2019-06-26T05:53:45.247Z,74.91
2019-06-26T05:56:11.438Z,75.35
2019-06-26T05:58:37.684Z,74.73
2019-06-26T06:01:04.367Z,74.58
2019-06-26T06:03:30.536Z,74.74
2019-06-26T06:05:56.833Z,75.06
2019-06-26T06:08:23.048Z,74.32
2019-06-26T06:10:49.242Z,71.98
2019-06-26T06:13:15.466Z,72.12
2019-06-26T06:15:41.635Z,72.93
2019-06-26T06:18:07.893Z,71.90
2019-06-26T06:20:38.159Z,72.49
2019-06-26T06:23:04.974Z,71.82
2019-06-26T06:25:31.131Z,70.31
2019-06-26T06:27:57.629Z,70.68
2019-06-26T06:30:23.820Z,70.66
2019-06-26T06:32:50.182Z,70.32
2019-06-26T06:35:16.394Z,69.21
2019-06-26T06:37:42.632Z,68.58
2019-06-26T06:40:09.189Z,70.09
2019-06-26T06:42:35.630Z,69.38
2019-06-26T06:45:04.483Z,66.99
2019-06-26T06:47:30.637Z,69.16
2019-06-26T06:49:56.990Z,66.64
2019-06-26T06:52:23.291Z,67.68
2019-06-26T06:54:49.688Z,68.99
2019-06-26T06:57:15.987Z,66.59
2019-06-26T06:59:42.178Z,66.81
2019-06-26T07:02:08.396Z,67.10
2019-06-26T07:04:34.715Z,64.86
2019-06-26T07:07:01.151Z,65.60
2019-06-26T07:09:27.789Z,66.80
2019-06-26T07:11:54.505Z,65.94
2019-06-26T07:14:20.959Z,64.16
2019-06-26T07:16:48.021Z,65.91
2019-06-26T07:19:14.228Z,61.94
2019-06-26T07:21:40.653Z,63.16
2019-06-26T07:24:07.352Z,61.56
2019-06-26T07:26:34.085Z,62.49
2019-06-26T07:29:00.375Z,62.45
2019-06-26T07:31:27.211Z,61.18
2019-06-26T07:33:55.827Z,61.44
2019-06-26T07:36:22.061Z,61.28
2019-06-26T07:38:48.385Z,62.09
2019-06-26T07:41:15.086Z,63.53
2019-06-26T07:43:41.638Z,61.56
2019-06-26T07:46:07.977Z,60.95
2019-06-26T07:48:34.734Z,59.76
2019-06-26T07:51:01.447Z,60.17
2019-06-26T07:53:27.907Z,61.83
2019-06-26T07:55:54.464Z,61.02
2019-06-26T07:58:21.640Z,58.77
2019-06-26T08:00:48.454Z,58.14
2019-06-26T08:03:15.453Z,59.11
2019-06-26T08:05:43.199Z,58.08
2019-06-26T08:08:12.190Z,59.55
2019-06-26T08:10:38.336Z,59.85
2019-06-26T08:13:07.090Z,57.29
2019-06-26T08:15:33.982Z,56.75
2019-06-26T08:18:01.627Z,57.39
2019-06-26T08:20:28.746Z,56.57
2019-06-26T08:22:55.141Z,57.71
2019-06-26T08:25:21.758Z,58.01
2019-06-26T08:27:48.947Z,57.37
2019-06-26T08:30:15.755Z,56.97
2019-06-26T08:32:42.320Z,58.40
2019-06-26T08:35:09.011Z,60.57
2019-06-26T08:37:35.495Z,55.42
2019-06-26T08:40:04.161Z,55.40
2019-06-26T08:42:30.743Z,56.57
2019-06-26T08:44:57.286Z,55.58
2019-06-26T08:47:24.047Z,55.19
2019-06-26T08:49:50.777Z,53.57
2019-06-26T08:52:17.577Z,55.28
2019-06-26T08:54:44.219Z,55.05
2019-06-26T08:57:11.106Z,54.14
2019-06-26T08:59:37.400Z,55.89
2019-06-26T09:02:04.224Z,56.78
2019-06-26T09:04:30.816Z,54.48
2019-06-26T09:06:57.382Z,53.35
2019-06-26T09:09:24.059Z,54.65
2019-06-26T09:11:50.617Z,52.69
2019-06-26T09:14:17.485Z,53.13
2019-06-26T09:16:44.007Z,52.05
2019-06-26T09:19:10.497Z,52.39
2019-06-26T09:21:36.928Z,51.82
2019-06-26T09:24:03.432Z,51.84
2019-06-26T09:26:29.886Z,51.52
2019-06-26T09:28:56.830Z,50.74
2019-06-26T09:31:23.411Z,51.70
2019-06-26T09:33:49.768Z,50.51
2019-06-26T09:36:16.432Z,48.68
2019-06-26T09:38:43.139Z,50.52
2019-06-26T09:41:09.506Z,48.95
2019-06-26T09:43:35.966Z,48.28
2019-06-26T09:46:02.447Z,48.55
2019-06-26T09:48:28.851Z,47.55
2019-06-26T09:50:55.424Z,46.80
2019-06-26T09:53:22.230Z,45.71
2019-06-26T09:55:49.001Z,45.93
2019-06-26T09:58:15.319Z,46.86
2019-06-26T10:00:41.983Z,47.31
2019-06-26T10:03:09.625Z,46.14
2019-06-26T10:05:36.236Z,45.18
2019-06-26T10:08:02.909Z,45.37
2019-06-26T10:10:29.497Z,44.55
2019-06-26T10:12:55.932Z,43.96
2019-06-26T10:15:22.519Z,44.82
2019-06-26T10:17:49.154Z,46.80
2019-06-26T10:20:17.391Z,43.18
2019-06-26T10:22:44.207Z,46.36
2019-06-26T10:25:11.744Z,48.27
2019-06-26T10:27:38.711Z,44.40
2019-06-26T10:30:06.137Z,41.06
2019-06-26T10:32:33.262Z,42.27
2019-06-26T10:34:59.865Z,39.16
2019-06-26T10:37:26.508Z,39.93
2019-06-26T10:39:53.352Z,41.00
2019-06-26T10:42:19.804Z,41.11
2019-06-26T10:44:46.500Z,40.27
2019-06-26T10:47:13.067Z,39.84
2019-06-26T10:49:39.389Z,38.93
2019-06-26T10:52:05.730Z,40.33
2019-06-26T10:54:31.938Z,40.09
2019-06-26T10:56:58.361Z,40.76
2019-06-26T10:59:24.674Z,41.35
2019-06-26T11:01:50.972Z,38.65
2019-06-26T11:04:17.230Z,39.04
2019-06-26T11:06:43.407Z,38.69
2019-06-26T11:09:09.676Z,39.13
2019-06-26T11:11:35.936Z,38.23
2019-06-26T11:14:03.710Z,38.61
2019-06-26T11:16:29.999Z,41.81
2019-06-26T11:18:56.266Z,39.62
2019-06-26T11:21:22.439Z,39.21
2019-06-26T11:23:48.744Z,39.09
2019-06-26T11:26:15.311Z,38.33
2019-06-26T11:28:41.500Z,38.13
2019-06-26T11:31:07.819Z,38.99
2019-06-26T11:33:34.115Z,38.93
2019-06-26T11:36:00.595Z,39.04
2019-06-26T11:38:26.909Z,37.79
2019-06-26T11:40:53.199Z,37.84
2019-06-26T11:43:19.512Z,38.08
2019-06-26T11:45:45.743Z,38.95
2019-06-26T11:48:12.167Z,38.58
2019-06-26T11:50:38.381Z,38.23
2019-06-26T11:53:04.565Z,38.81
2019-06-26T11:55:30.875Z,35.88
2019-06-26T11:57:57.145Z,35.61
2019-06-26T12:00:24.409Z,37.06
2019-06-26T12:02:50.711Z,36.95
2019-06-26T12:05:18.963Z,38.87
2019-06-26T12:07:45.165Z,36.30
2019-06-26T12:10:13.121Z,36.18
2019-06-26T12:12:39.484Z,35.59
2019-06-26T12:15:07.872Z,35.78
2019-06-26T12:17:34.120Z,36.68
2019-06-26T12:20:17.168Z,37.62
2019-06-26T12:22:28.852Z,36.63
2019-06-26T12:24:55.035Z,36.43
2019-06-26T12:27:21.258Z,35.29
2019-06-26T12:29:47.509Z,38.62
2019-06-26T12:32:13.739Z,35.31
2019-06-26T12:34:39.918Z,35.71
2019-06-26T12:37:06.138Z,33.04
2019-06-26T12:39:32.351Z,36.18
2019-06-26T12:41:58.557Z,34.77
2019-06-26T12:44:24.840Z,35.84
2019-06-26T12:46:51.013Z,34.42
2019-06-26T12:49:17.278Z,37.23
2019-06-26T12:51:43.583Z,34.21
2019-06-26T12:54:09.748Z,32.90
2019-06-26T12:56:36.067Z,32.69
2019-06-26T12:59:02.406Z,30.92
2019-06-26T13:01:28.797Z,29.89
2019-06-26T13:03:55.041Z,30.99
2019-06-26T13:06:21.234Z,30.48
2019-06-26T13:08:47.513Z,31.80
2019-06-26T13:11:13.985Z,32.22
2019-06-26T13:13:40.198Z,32.66
2019-06-26T13:16:06.409Z,32.38
2019-06-26T13:18:32.802Z,32.49
2019-06-26T13:20:58.988Z,30.55
2019-06-26T13:23:25.409Z,32.03
2019-06-26T13:25:51.601Z,32.51
2019-06-26T13:28:17.796Z,34.23
2019-06-26T13:30:44.050Z,34.83
2019-06-26T13:33:10.277Z,34.82
2019-06-26T13:35:36.580Z,33.98
2019-06-26T13:38:03.322Z,33.45
2019-06-26T13:40:29.651Z,31.08
2019-06-26T13:42:55.974Z,31.84
2019-06-26T13:45:22.260Z,31.43
2019-06-26T13:47:48.564Z,32.75
2019-06-26T13:50:15.395Z,33.32
2019-06-26T13:52:41.649Z,32.10
2019-06-26T13:55:09.137Z,32.26
2019-06-26T13:57:35.350Z,32.55
2019-06-26T14:00:04.348Z,32.23
2019-06-26T14:02:30.555Z,31.68
2019-06-26T14:04:56.791Z,32.33
2019-06-26T14:07:23.026Z,32.46
2019-06-26T14:09:49.398Z,32.26
2019-06-26T14:12:18.996Z,32.09
2019-06-26T14:14:56.786Z,33.21
2019-06-26T14:17:12.125Z,33.72
2019-06-26T14:19:38.318Z,34.05
2019-06-26T14:22:04.650Z,35.03
2019-06-26T14:24:30.871Z,33.44
2019-06-26T14:26:57.120Z,32.53
2019-06-26T14:29:23.858Z,33.48
2019-06-26T14:31:50.153Z,33.15
2019-06-26T14:34:16.337Z,32.88
2019-06-26T14:36:42.906Z,33.48
2019-06-26T14:39:09.093Z,32.65
2019-06-26T14:41:38.988Z,33.86
2019-06-26T14:44:03.562Z,34.29
2019-06-26T14:46:29.789Z,34.07
2019-06-26T14:48:56.025Z,33.81
2019-06-26T14:51:22.384Z,33.09
2019-06-26T14:53:48.698Z,34.61
2019-06-26T14:56:14.952Z,33.41
2019-06-26T14:58:41.625Z,33.06
2019-06-26T15:01:08.213Z,32.34
2019-06-26T15:03:34.717Z,33.67
2019-06-26T15:06:15.463Z,32.20
2019-06-26T15:08:29.034Z,33.40
2019-06-26T15:10:55.282Z,32.47
2019-06-26T15:13:21.479Z,33.40
2019-06-26T15:15:47.749Z,32.37
2019-06-26T15:18:14.140Z,33.19
2019-06-26T15:20:40.361Z,31.55
2019-06-26T15:23:06.537Z,33.06
2019-06-26T15:25:32.787Z,32.60
2019-06-26T15:27:58.963Z,32.68
2019-06-26T15:30:25.167Z,31.85
2019-06-26T15:32:51.360Z,31.83
2019-06-26T15:35:17.537Z,32.95
2019-06-26T15:37:44.917Z,31.67
2019-06-26T15:40:13.942Z,31.75
2019-06-26T15:42:40.327Z,31.38
2019-06-26T15:45:07.099Z,32.67
2019-06-26T15:47:33.318Z,31.77
2019-06-26T15:49:59.585Z,32.70
2019-06-26T15:52:25.836Z,32.85
2019-06-26T15:54:52.199Z,33.39
2019-06-26T15:57:18.339Z,34.52
2019-06-26T15:59:44.553Z,36.65
2019-06-26T16:02:10.867Z,36.37
2019-06-26T16:04:37.079Z,36.38
2019-06-26T16:07:03.425Z,36.25
2019-06-26T16:09:29.707Z,36.67
2019-06-26T16:11:58.834Z,37.29
2019-06-26T16:14:23.977Z,36.82
2019-06-26T16:16:52.539Z,37.51
2019-06-26T16:19:23.634Z,37.79
2019-06-26T16:21:49.848Z,38.50
2019-06-26T16:24:16.189Z,39.09
2019-06-26T16:26:42.539Z,38.44
2019-06-26T16:29:08.769Z,38.84
2019-06-26T16:31:35.334Z,38.56
2019-06-26T16:34:01.564Z,39.07
2019-06-26T16:36:27.830Z,38.85
2019-06-26T16:38:54.067Z,38.09
2019-06-26T16:41:20.301Z,39.17
2019-06-26T16:43:46.836Z,39.73
2019-06-26T16:46:13.428Z,40.22
2019-06-26T16:48:39.654Z,40.91
2019-06-26T16:51:06.071Z,40.80
2019-06-26T16:53:35.389Z,40.93
2019-06-26T16:56:00.537Z,41.34
2019-06-26T16:58:26.740Z,40.56
2019-06-26T17:00:52.965Z,40.54
2019-06-26T17:03:19.173Z,40.79
2019-06-26T17:05:45.458Z,40.27
2019-06-26T17:08:11.709Z,40.08
2019-06-26T17:10:37.941Z,41.07
2019-06-26T17:13:04.199Z,40.73
2019-06-26T17:15:30.463Z,41.05
2019-06-26T17:17:56.690Z,41.34
2019-06-26T17:20:23.007Z,41.47
2019-06-26T17:23:04.607Z,41.42
2019-06-26T17:25:17.375Z,41.85
2019-06-26T17:27:43.636Z,42.01
2019-06-26T17:30:10.645Z,41.99
2019-06-26T17:32:36.862Z,43.36
2019-06-26T17:35:06.920Z,43.02
2019-06-26T17:37:33.139Z,43.45
2019-06-26T17:39:59.344Z,43.11
2019-06-26T17:42:25.627Z,43.23
2019-06-26T17:44:51.958Z,42.60
2019-06-26T17:47:18.119Z,42.28
2019-06-26T17:49:44.432Z,43.22
2019-06-26T17:52:10.618Z,43.09
2019-06-26T17:54:36.902Z,43.08
2019-06-26T17:57:03.080Z,43.03
2019-06-26T17:59:29.339Z,42.91
2019-06-26T18:01:55.681Z,42.72
2019-06-26T18:04:21.915Z,42.19
2019-06-26T18:06:48.144Z,41.58
2019-06-26T18:09:14.408Z,41.84
2019-06-26T18:11:41.165Z,41.73
2019-06-26T18:14:07.380Z,42.17
2019-06-26T18:16:33.676Z,42.76
2019-06-26T18:18:59.889Z,43.19
2019-06-26T18:21:26.104Z,43.62
2019-06-26T18:23:52.291Z,43.13
2019-06-26T18:26:18.615Z,43.42
2019-06-26T18:28:44.796Z,43.89
2019-06-26T18:31:10.979Z,43.95
2019-06-26T18:33:37.355Z,44.53
2019-06-26T18:36:03.748Z,44.06
2019-06-26T18:38:29.948Z,44.25
2019-06-26T18:40:56.265Z,43.72
2019-06-26T18:43:22.810Z,43.88
2019-06-26T18:45:48.989Z,44.32
2019-06-26T18:48:18.784Z,44.36
2019-06-26T18:50:44.982Z,44.25
2019-06-26T18:53:11.217Z,44.28
2019-06-26T18:55:37.502Z,44.82
2019-06-26T18:58:04.039Z,44.70
2019-06-26T19:00:30.269Z,44.27
2019-06-26T19:02:56.445Z,45.18
2019-06-26T19:05:22.717Z,45.47
2019-06-26T19:07:48.959Z,45.81
2019-06-26T19:10:15.350Z,46.53
2019-06-26T19:12:41.731Z,46.83
2019-06-26T19:15:09.109Z,48.08
2019-06-26T19:17:35.319Z,48.67
2019-06-26T19:20:06.215Z,48.65
2019-06-26T19:22:32.421Z,48.57
2019-06-26T19:24:58.659Z,48.92
2019-06-26T19:27:24.923Z,48.99
2019-06-26T19:29:51.162Z,48.99
2019-06-26T19:32:17.408Z,49.59
2019-06-26T19:34:43.673Z,50.32
2019-06-26T19:37:09.931Z,50.83
2019-06-26T19:39:36.526Z,51.45
2019-06-26T19:42:02.747Z,50.86
2019-06-26T19:44:28.966Z,50.90
2019-06-26T19:46:55.174Z,51.82
2019-06-26T19:49:21.430Z,51.13
2019-06-26T19:51:47.904Z,52.90
2019-06-26T19:54:26.594Z,51.82
2019-06-26T19:56:42.226Z,52.34
2019-06-26T19:59:08.479Z,52.53
2019-06-26T20:01:34.719Z,52.41
2019-06-26T20:04:01.134Z,53.02
2019-06-26T20:06:27.438Z,53.67
2019-06-26T20:08:57.458Z,54.09
2019-06-26T20:11:21.926Z,54.30
2019-06-26T20:13:48.166Z,54.43
2019-06-26T20:16:14.691Z,54.77
2019-06-26T20:18:40.953Z,54.63
2019-06-26T20:21:07.283Z,55.00
2019-06-26T20:23:33.619Z,54.75
2019-06-26T20:25:59.919Z,54.65
2019-06-26T20:28:26.169Z,54.98
2019-06-26T20:30:52.925Z,55.86
2019-06-26T20:33:19.197Z,55.51
2019-06-26T20:35:45.408Z,55.69
2019-06-26T20:38:11.685Z,56.13
2019-06-26T20:40:37.946Z,56.41
2019-06-26T20:43:04.269Z,56.94
2019-06-26T20:45:30.504Z,57.04
2019-06-26T20:47:56.744Z,57.90
2019-06-26T20:50:22.989Z,58.44
2019-06-26T20:52:49.434Z,58.07
2019-06-26T20:55:16.114Z,57.93
2019-06-26T20:57:42.579Z,58.95
2019-06-26T21:00:09.146Z,59.90
2019-06-26T21:02:35.595Z,59.63
2019-06-26T21:05:05.810Z,59.09
2019-06-26T21:07:32.109Z,59.45
2019-06-26T21:09:58.437Z,60.00
2019-06-26T21:12:24.669Z,61.08
2019-06-26T21:14:50.828Z,61.39
2019-06-26T21:17:17.019Z,61.29
2019-06-26T21:19:43.255Z,61.54
2019-06-26T21:22:09.444Z,61.41
2019-06-26T21:24:35.943Z,60.75
2019-06-26T21:27:02.163Z,61.80
2019-06-26T21:29:28.344Z,62.15
2019-06-26T21:31:54.660Z,62.39
2019-06-26T21:34:20.844Z,62.43
2019-06-26T21:36:47.087Z,62.18
2019-06-26T21:39:13.312Z,62.32
2019-06-26T21:41:39.477Z,62.37
2019-06-26T21:44:05.688Z,62.42
2019-06-26T21:46:31.906Z,62.38
2019-06-26T21:48:58.143Z,62.58
2019-06-26T21:51:24.353Z,62.50
2019-06-26T21:53:50.569Z,61.86
2019-06-26T21:56:16.741Z,62.88
2019-06-26T21:58:43.376Z,62.52
2019-06-26T22:01:09.655Z,61.81
2019-06-26T22:03:35.938Z,62.38
2019-06-26T22:06:02.256Z,63.35
2019-06-26T22:08:29.208Z,62.56
2019-06-26T22:10:55.867Z,62.69
2019-06-26T22:13:23.090Z,62.25
2019-06-26T22:15:49.492Z,62.80
2019-06-26T22:18:20.011Z,63.15
2019-06-26T22:20:46.609Z,62.71
2019-06-26T22:23:13.105Z,63.21
2019-06-26T22:25:50.762Z,62.63
2019-06-26T22:28:13.374Z,61.91
2019-06-26T22:30:39.698Z,62.36
2019-06-26T22:33:06.116Z,62.18
2019-06-26T22:35:32.744Z,62.84
2019-06-26T22:37:59.241Z,63.17
2019-06-26T22:40:25.497Z,63.53
2019-06-26T22:42:51.685Z,63.15
2019-06-26T22:45:18.031Z,63.26
2019-06-26T22:47:44.328Z,63.20
2019-06-26T22:50:10.835Z,63.28
2019-06-26T22:52:37.122Z,63.30
2019-06-26T22:55:07.329Z,63.67
2019-06-26T22:57:33.622Z,62.96
2019-06-26T22:59:59.971Z,63.45
2019-06-26T23:02:26.389Z,63.04
2019-06-26T23:04:52.668Z,63.62
2019-06-26T23:07:18.907Z,63.26
2019-06-26T23:09:45.391Z,63.62
2019-06-26T23:12:11.723Z,62.84
2019-06-26T23:14:37.939Z,62.99
2019-06-26T23:17:04.196Z,62.63
2019-06-26T23:19:30.354Z,62.64
2019-06-26T23:21:56.571Z,62.40
2019-06-26T23:24:22.818Z,62.52
2019-06-26T23:26:49.135Z,62.56
2019-06-26T23:29:15.608Z,62.34
2019-06-26T23:31:41.800Z,62.41
2019-06-26T23:34:08.041Z,63.54
2019-06-26T23:36:34.472Z,63.13
2019-06-26T23:39:00.633Z,62.94
2019-06-26T23:41:26.876Z,63.39
2019-06-26T23:43:53.097Z,63.15
2019-06-26T23:46:19.316Z,63.11
2019-06-26T23:48:45.943Z,63.70
2019-06-26T23:51:12.338Z,63.35
2019-06-26T23:53:38.562Z,63.15
2019-06-26T23:56:05.244Z,63.25
2019-06-26T23:58:31.835Z,63.89
